Kezdőlap
METAR-TAF:

METAR-TAF

Repülőterek :

Hartness State Airport

Springfield, Vermont, Amerikai Egyesült Államok

földrajzi szélesség: 43-20-33N, földrajzi hosszúság: 072-31-18W, magasság: 175 m

Jelenlegi meteorológiai megfigyelések

A jelentés 35 perccel ezelõtt készült, 05:15 UTC
Szélcsend
Hőmérséklet 21°C
Páratartalom 88%
Légköri nyomás 1015 hPa
Látótávolság: 16.1 km
Borult 400 lábon

METAR: KVSF 090515Z AUTO 00000KT 10SM OVC004 21/19 A2996 RMK AO2 CIG 004V008 T02060194

Idő: 01:50 (05:50 UTC)


TAF: hiányzik

Meteorológiai megfigyelések és előrejelzések több, mint 4000 repülőtéren (METAR és TAF jelentéseket).

A térképen piros és sárga pontok jelzik az elérhető meteorológiai állomásokat.

Mozgassa az egeret a pont fölött, hogy megjelenjen az állomás neve.

Azután kattintson az időjárási megfigyelések és előrejelzések megtekintéséhez.

A térkép megváltoztatása: kattintson a fekete keresztel jelölt zöld gombra ráközelítéshez, a vonallal jelölt zöld gombra távolításhoz, vagy a zöld nyilakra a szomszédos térképek eléréséhez.


METAR-TAF: